Time;durP1;ratioP1;P1;durP2;ratioP2;P2;SDS_P1;SDS_P2;PMS_P1;PMS_P2;Temp;Humidity;BMP_temperature;BMP_pressure;BME280_temperature;BME280_humidity;BME280_pressure;Samples;Min_cycle;Max_cycle;Signal;HPM_P1;HPM_P2
2021/05/05 00:01:26;;;;;;;;;;;;;;;7.25;53.46;99089.53;3482573;28;19928;-44
2021/05/05 00:03:07;;;;;;;;;;;;;;;7.25;53.76;99079.19;3479250;28;19932;-44
2021/05/05 00:04:48;;;;;;;;;;;;;;;7.24;53.76;99081.75;3480417;28;20482;-44
2021/05/05 00:06:29;;;;;;;;;;;;;;;7.25;54.09;99086.94;3479908;28;19929;-44
2021/05/05 00:08:10;;;;;;;;;;;;;;;7.29;53.74;99084.41;3477970;28;20020;-43
2021/05/05 00:09:51;;;;;;;;;;;;;;;7.30;53.70;99087.03;3482443;28;19971;-43
2021/05/05 00:11:32;;;;;;;;;;;;;;;7.31;53.93;99090.47;3478720;28;19929;-43
2021/05/05 00:13:15;;;;;;;;;;;;;;;7.29;53.95;99090.44;3483364;28;19932;-44
2021/05/05 00:14:56;;;;;;;;;;;;;;;7.29;53.95;99082.69;3481374;28;19980;-44
2021/05/05 00:16:37;;;;;;;;;;;;;;;7.31;53.80;99083.59;3482646;28;20297;-43
2021/05/05 00:18:18;;;;;;;;;;;;;;;7.31;53.70;99081.00;3483115;28;19967;-43
2021/05/05 00:19:59;;;;;;;;;;;;;;;7.32;54.15;99090.50;3481094;28;20356;-44
2021/05/05 00:21:41;;;;;;;;;;;;;;;7.32;54.24;99080.19;3470899;28;19932;-43
2021/05/05 00:23:22;;;;;;;;;;;;;;;7.33;53.98;99083.63;3475281;28;20344;-44
2021/05/05 00:25:04;;;;;;;;;;;;;;;7.32;54.25;99079.28;3484756;28;19964;-43
2021/05/05 00:26:45;;;;;;;;;;;;;;;7.31;53.89;99082.72;3480002;28;19983;-44
2021/05/05 00:28:28;;;;;;;;;;;;;;;7.30;53.95;99080.97;3483180;28;19929;-43
2021/05/05 00:30:10;;;;;;;;;;;;;;;7.29;54.46;99084.41;3481953;28;20027;-44
2021/05/05 00:31:51;;;;;;;;;;;;;;;7.26;54.42;99080.06;3481019;28;19982;-44
2021/05/05 00:33:32;;;;;;;;;;;;;;;7.24;54.41;99079.16;3484257;28;20389;-43
2021/05/05 00:35:14;;;;;;;;;;;;;;;7.21;54.56;99080.00;3479821;28;19932;-44
2021/05/05 00:36:55;;;;;;;;;;;;;;;7.21;54.44;99073.94;3484800;28;20382;-51
2021/05/05 00:38:36;;;;;;;;;;;;;;;7.18;54.73;99069.63;3479866;28;19951;-52
2021/05/05 00:40:18;;;;;;;;;;;;;;;7.17;54.62;99069.59;3481678;28;20344;-51
2021/05/05 00:41:59;;;;;;;;;;;;;;;7.15;54.35;99069.56;3482424;28;19972;-51
2021/05/05 00:43:40;;;;;;;;;;;;;;;7.13;54.85;99060.94;3481079;28;20416;-50
2021/05/05 00:45:22;;;;;;;;;;;;;;;7.10;54.92;99066.03;3484092;28;20011;-50
2021/05/05 00:47:03;;;;;;;;;;;;;;;7.07;54.65;99066.84;3479854;28;19925;-51
2021/05/05 00:48:44;;;;;;;;;;;;;;;7.07;55.00;99073.69;3484265;28;19925;-53
2021/05/05 00:50:25;;;;;;;;;;;;;;;7.05;55.05;99063.38;3480769;28;19924;-51
2021/05/05 00:52:07;;;;;;;;;;;;;;;7.05;55.32;99068.53;3483290;28;19931;-51
2021/05/05 00:53:49;;;;;;;;;;;;;;;7.05;55.02;99065.97;3480702;28;19975;-50
2021/05/05 00:55:30;;;;;;;;;;;;;;;7.04;55.15;99071.09;3479607;28;19932;-51
2021/05/05 00:57:11;;;;;;;;;;;;;;;7.07;54.97;99068.53;3483860;28;19979;-50
2021/05/05 00:58:54;;;;;;;;;;;;;;;7.09;54.87;99072.03;3480864;28;20047;-50
2021/05/05 01:00:35;;;;;;;;;;;;;;;7.11;54.79;99077.22;3484272;28;19925;-52
2021/05/05 01:02:16;;;;;;;;;;;;;;;7.13;54.76;99057.50;3479443;28;20489;-51
2021/05/05 01:03:58;;;;;;;;;;;;;;;7.14;54.71;99065.25;3482367;28;19924;-50
2021/05/05 01:05:39;;;;;;;;;;;;;;;7.13;54.94;99062.66;3481638;28;19935;-51
2021/05/05 01:07:20;;;;;;;;;;;;;;;7.08;55.21;99066.00;3480892;28;19925;-53
2021/05/05 01:09:01;;;;;;;;;;;;;;;7.06;54.98;99059.09;3483429;28;19924;-51
2021/05/05 01:10:43;;;;;;;;;;;;;;;7.03;54.93;99056.44;3479312;28;19925;-51
2021/05/05 01:12:24;;;;;;;;;;;;;;;7.04;55.16;99053.03;3484061;28;19925;-52
2021/05/05 01:14:06;;;;;;;;;;;;;;;7.05;55.33;99054.75;3478049;28;19967;-52
2021/05/05 01:15:48;;;;;;;;;;;;;;;7.05;55.54;99054.75;3483764;28;19978;-51
2021/05/05 01:17:29;;;;;;;;;;;;;;;7.02;55.25;99054.72;3481262;28;19936;-53
2021/05/05 01:19:11;;;;;;;;;;;;;;;7.02;55.58;99060.75;3479650;28;19932;-51
2021/05/05 01:20:55;;;;;;;;;;;;;;;7.02;55.48;99058.16;3483740;28;19925;-51
2021/05/05 01:22:37;;;;;;;;;;;;;;;7.00;55.31;99062.44;3479226;28;19936;-51
2021/05/05 01:24:18;;;;;;;;;;;;;;;7.00;55.34;99056.38;3483837;28;20405;-52
2021/05/05 01:25:59;;;;;;;;;;;;;;;6.99;55.52;99063.25;3480588;28;19991;-51
2021/05/05 01:27:40;;;;;;;;;;;;;;;6.99;55.53;99054.66;3483639;28;19925;-51
2021/05/05 01:29:22;;;;;;;;;;;;;;;6.98;55.93;99046.06;3481066;28;20437;-51
2021/05/05 01:31:03;;;;;;;;;;;;;;;6.98;55.88;99050.34;3481693;28;19925;-51
2021/05/05 01:32:44;;;;;;;;;;;;;;;6.97;55.59;99052.06;3482669;28;19924;-51
2021/05/05 01:34:25;;;;;;;;;;;;;;;6.97;55.94;99044.31;3478913;28;19967;-51
2021/05/05 01:36:08;;;;;;;;;;;;;;;6.95;55.93;99043.41;3483948;28;19949;-52
2021/05/05 01:37:49;;;;;;;;;;;;;;;6.94;55.98;99048.50;3479286;28;19929;-52
2021/05/05 01:39:30;;;;;;;;;;;;;;;6.92;56.09;99040.75;3483233;28;20081;-50
2021/05/05 01:41:11;;;;;;;;;;;;;;;6.89;56.19;99039.00;3479629;28;20404;-52
2021/05/05 01:42:52;;;;;;;;;;;;;;;6.89;56.16;99040.69;3481256;28;19924;-53
2021/05/05 01:44:35;;;;;;;;;;;;;;;6.87;56.30;99035.50;3483186;28;20402;-53
2021/05/05 01:46:17;;;;;;;;;;;;;;;6.85;56.56;99029.44;3478803;28;19993;-52
2021/05/05 01:47:59;;;;;;;;;;;;;;;6.85;56.24;99034.59;3483691;28;19924;-51
2021/05/05 01:49:41;;;;;;;;;;;;;;;6.84;56.67;99027.72;3480233;28;19931;-51
2021/05/05 01:51:23;;;;;;;;;;;;;;;6.83;56.70;99033.72;3482855;28;19931;-51
2021/05/05 01:53:05;;;;;;;;;;;;;;;6.82;56.51;99037.16;3480747;28;20294;-51
2021/05/05 01:54:46;;;;;;;;;;;;;;;6.81;56.59;99027.66;3480360;28;20094;-53
2021/05/05 01:56:27;;;;;;;;;;;;;;;6.81;56.71;99035.41;3483487;28;19979;-52
2021/05/05 01:58:08;;;;;;;;;;;;;;;6.81;56.67;99030.25;3480121;28;20366;-51
2021/05/05 01:59:50;;;;;;;;;;;;;;;6.82;56.74;99036.25;3483687;28;19960;-50
2021/05/05 02:01:31;;;;;;;;;;;;;;;6.83;57.10;99036.28;3479856;28;19972;-50
2021/05/05 02:03:12;;;;;;;;;;;;;;;6.87;56.67;99035.50;3483140;28;20454;-50
2021/05/05 02:04:53;;;;;;;;;;;;;;;6.92;56.90;99033.00;3472818;28;19968;-51
2021/05/05 02:06:35;;;;;;;;;;;;;;;6.97;56.50;99038.31;3471262;28;19925;-51
2021/05/05 02:08:16;;;;;;;;;;;;;;;6.98;56.47;99038.34;3481720;28;19924;-50
2021/05/05 02:09:57;;;;;;;;;;;;;;;7.00;56.80;99040.91;3480258;28;19929;-52
2021/05/05 02:11:38;;;;;;;;;;;;;;;7.03;56.47;99028.06;3483341;28;20357;-51
2021/05/05 02:13:19;;;;;;;;;;;;;;;7.05;56.55;99031.53;3477123;28;20358;-53
2021/05/05 02:15:01;;;;;;;;;;;;;;;7.06;56.28;99028.13;3482976;28;20198;-52
2021/05/05 02:16:42;;;;;;;;;;;;;;;7.09;56.63;99030.78;3472305;28;19925;-51
2021/05/05 02:18:23;;;;;;;;;;;;;;;7.11;56.22;99018.78;3472314;28;19932;-54
2021/05/05 02:20:05;;;;;;;;;;;;;;;7.11;56.57;99018.78;3481201;28;20397;-51
2021/05/05 02:21:47;;;;;;;;;;;;;;;7.11;56.50;99017.91;3479941;28;19960;-50
2021/05/05 02:23:28;;;;;;;;;;;;;;;7.12;56.32;99014.47;3483486;28;19932;-51
2021/05/05 02:25:10;;;;;;;;;;;;;;;7.14;56.41;99007.63;3478645;28;20394;-52
2021/05/05 02:26:51;;;;;;;;;;;;;;;7.17;56.23;99016.28;3482666;28;19947;-53
2021/05/05 02:28:33;;;;;;;;;;;;;;;7.17;56.19;99016.28;3479219;28;19978;-53
2021/05/05 02:30:14;;;;;;;;;;;;;;;7.22;56.41;99012.06;3480156;28;19925;-51
2021/05/05 02:32:01;;;;;;;;;;;;;;;7.24;56.41;99014.69;3481565;28;19924;-52
2021/05/05 02:33:42;;;;;;;;;;;;;;;7.25;56.32;99012.13;3478246;28;19925;-51
2021/05/05 02:35:23;;;;;;;;;;;;;;;7.26;56.21;99013.00;3482491;28;19979;-50
2021/05/05 02:37:06;;;;;;;;;;;;;;;7.25;56.36;99006.97;3479944;28;19952;-50
2021/05/05 02:38:46;;;;;;;;;;;;;;;7.25;56.68;99000.94;3482022;28;19952;-51
2021/05/05 02:40:28;;;;;;;;;;;;;;;7.24;56.84;99002.63;3479477;28;19975;-53
2021/05/05 02:42:10;;;;;;;;;;;;;;;7.25;56.34;99011.28;3481770;28;19979;-50
2021/05/05 02:43:52;;;;;;;;;;;;;;;7.26;56.89;99002.66;3481332;28;20406;-54
2021/05/05 02:45:33;;;;;;;;;;;;;;;7.29;57.20;99000.16;3478221;28;20417;-51
2021/05/05 02:47:15;;;;;;;;;;;;;;;7.32;57.05;99007.03;3482724;28;20298;-52
2021/05/05 02:48:56;;;;;;;;;;;;;;;7.32;57.18;99009.63;3479718;28;19932;-51
2021/05/05 02:50:38;;;;;;;;;;;;;;;7.33;57.35;99004.50;3482737;28;19931;-51
2021/05/05 02:52:20;;;;;;;;;;;;;;;7.36;57.35;99004.56;3479043;28;19932;-45
2021/05/05 02:54:01;;;;;;;;;;;;;;;7.37;57.58;98995.97;3480628;28;19948;-43
2021/05/05 02:55:42;;;;;;;;;;;;;;;7.38;57.70;99002.84;3480999;28;19971;-44
2021/05/05 02:57:23;;;;;;;;;;;;;;;7.40;57.41;98996.00;3478321;28;19964;-44
2021/05/05 02:59:04;;;;;;;;;;;;;;;7.41;57.90;99004.63;3482995;28;19925;-44
2021/05/05 03:00:45;;;;;;;;;;;;;;;7.42;57.81;98996.03;3479462;28;20405;-43
2021/05/05 03:02:26;;;;;;;;;;;;;;;7.41;57.99;99002.91;3483118;28;19928;-44
2021/05/05 03:04:08;;;;;;;;;;;;;;;7.40;58.13;98990.84;3478846;28;19979;-43
2021/05/05 03:05:49;;;;;;;;;;;;;;;7.41;58.37;98992.59;3479522;28;19968;-43
2021/05/05 03:07:31;;;;;;;;;;;;;;;7.40;58.18;98995.16;3481407;28;19929;-44
2021/05/05 03:09:13;;;;;;;;;;;;;;;7.42;58.45;98989.19;3479674;28;19925;-44
2021/05/05 03:10:54;;;;;;;;;;;;;;;7.45;58.63;98986.63;3483072;28;19951;-44
2021/05/05 03:12:35;;;;;;;;;;;;;;;7.52;58.23;98989.31;3478262;28;19925;-44
2021/05/05 03:14:16;;;;;;;;;;;;;;;7.57;58.59;98991.13;3481582;28;19924;-44
2021/05/05 03:15:57;;;;;;;;;;;;;;;7.62;58.44;98989.47;3478171;28;20290;-44
2021/05/05 03:17:39;;;;;;;;;;;;;;;7.67;58.51;98989.53;3480894;28;19948;-44
2021/05/05 03:19:21;;;;;;;;;;;;;;;7.71;58.19;98983.56;3480210;28;19964;-43
2021/05/05 03:21:02;;;;;;;;;;;;;;;7.75;58.61;98990.50;3478088;28;19925;-43
2021/05/05 03:22:44;;;;;;;;;;;;;;;7.79;58.33;98986.25;3482672;28;20445;-43
2021/05/05 03:24:25;;;;;;;;;;;;;;;7.81;58.24;98981.97;3479445;28;19924;-44
2021/05/05 03:26:06;;;;;;;;;;;;;;;7.85;58.27;98988.94;3482667;28;20028;-44
2021/05/05 03:27:47;;;;;;;;;;;;;;;7.92;58.54;98982.09;3479405;28;20090;-43
2021/05/05 03:29:28;;;;;;;;;;;;;;;7.99;58.16;98987.38;3480694;28;19924;-43
2021/05/05 03:31:09;;;;;;;;;;;;;;;8.05;58.40;98988.31;3471428;28;19936;-43
2021/05/05 03:32:50;;;;;;;;;;;;;;;8.11;58.01;98989.28;3471545;28;19975;-43
2021/05/05 03:34:32;;;;;;;;;;;;;;;8.18;57.93;98993.66;3482418;28;20023;-43
2021/05/05 03:36:13;;;;;;;;;;;;;;;8.26;57.58;98982.53;3478081;28;19956;-44
2021/05/05 03:37:55;;;;;;;;;;;;;;;8.32;57.74;98974.84;3482826;28;20306;-44
2021/05/05 03:39:36;;;;;;;;;;;;;;;8.36;57.99;98982.66;3477780;28;19925;-44
2021/05/05 03:41:17;;;;;;;;;;;;;;;8.43;57.62;98975.84;3481221;28;20377;-43
2021/05/05 03:42:58;;;;;;;;;;;;;;;8.51;57.57;98979.38;3471891;28;19979;-44
2021/05/05 03:44:39;;;;;;;;;;;;;;;8.59;57.65;98976.88;3477958;28;19983;-43
2021/05/05 03:46:20;;;;;;;;;;;;;;;8.65;57.36;98971.75;3483407;28;19928;-44
2021/05/05 03:48:02;;;;;;;;;;;;;;;8.74;57.26;98973.56;3480172;28;19995;-43
2021/05/05 03:49:43;;;;;;;;;;;;;;;8.83;56.97;98973.66;3485680;28;19978;-52
2021/05/05 03:51:25;;;;;;;;;;;;;;;8.91;57.11;98972.03;3481444;28;20389;-51
2021/05/05 03:53:07;;;;;;;;;;;;;;;9.00;56.29;98970.38;3483929;28;19924;-50
2021/05/05 03:54:48;;;;;;;;;;;;;;;9.08;56.56;98976.47;3482665;28;20010;-51
2021/05/05 03:56:29;;;;;;;;;;;;;;;9.14;56.01;98974.81;3480619;28;19929;-54
2021/05/05 03:58:10;;;;;;;;;;;;;;;9.24;55.92;98985.22;3484683;28;20454;-54
2021/05/05 03:59:51;;;;;;;;;;;;;;;9.31;55.74;98976.63;3480037;28;19975;-52
2021/05/05 04:01:32;;;;;;;;;;;;;;;9.41;55.63;98977.59;3484952;28;20369;-51
2021/05/05 04:03:14;;;;;;;;;;;;;;;9.50;55.61;98969.91;3481298;28;19925;-50
2021/05/05 04:04:55;;;;;;;;;;;;;;;9.60;54.91;98973.44;3484605;28;20377;-50
2021/05/05 04:06:36;;;;;;;;;;;;;;;9.67;54.28;98970.03;3480839;28;20435;-51
2021/05/05 04:08:18;;;;;;;;;;;;;;;9.76;54.45;98975.25;3481576;28;19925;-50
2021/05/05 04:09:59;;;;;;;;;;;;;;;9.84;54.48;98963.22;3483952;28;20033;-50
2021/05/05 04:11:40;;;;;;;;;;;;;;;9.91;54.40;98962.41;3480019;28;19990;-52
2021/05/05 04:13:21;;;;;;;;;;;;;;;9.97;53.94;98966.72;3482999;28;19925;-51
2021/05/05 04:15:20;;;;;;;;;;;;;;;10.06;53.99;98964.16;3480496;28;19982;-51
2021/05/05 04:17:20;;;;;;;;;;;;;;;10.14;53.32;98963.34;3480206;28;19931;-51
2021/05/05 04:19:19;;;;;;;;;;;;;;;10.22;53.54;98962.50;3484870;28;20047;-51
2021/05/05 04:21:19;;;;;;;;;;;;;;;10.33;53.45;98962.53;3481013;28;19934;-52
2021/05/05 04:23:19;;;;;;;;;;;;;;;10.42;53.04;98962.59;3480024;28;19932;-50
2021/05/05 04:25:01;;;;;;;;;;;;;;;10.50;53.74;98962.59;3484208;28;19925;-50
2021/05/05 04:26:42;;;;;;;;;;;;;;;10.58;52.65;98960.00;3479949;28;20401;-51
2021/05/05 04:28:23;;;;;;;;;;;;;;;10.66;52.83;98959.16;3484698;28;19959;-51
2021/05/05 04:30:05;;;;;;;;;;;;;;;10.77;52.65;98960.91;3481289;28;19925;-52
2021/05/05 04:31:47;;;;;;;;;;;;;;;10.84;52.26;98954.88;3482624;28;19924;-51
2021/05/05 04:33:28;;;;;;;;;;;;;;;10.95;52.10;98945.34;3482221;28;19951;-50
2021/05/05 04:35:09;;;;;;;;;;;;;;;11.05;52.06;98951.44;3480650;28;19925;-53
2021/05/05 04:36:50;;;;;;;;;;;;;;;11.15;51.84;98949.72;3483807;28;19932;-50
2021/05/05 04:38:32;;;;;;;;;;;;;;;11.23;51.75;98945.34;3480971;28;19924;-51
2021/05/05 04:40:14;;;;;;;;;;;;;;;11.30;51.60;98939.28;3484400;28;19925;-44
2021/05/05 04:41:55;;;;;;;;;;;;;;;11.38;50.86;98950.56;3475308;28;20306;-44
2021/05/05 04:43:36;;;;;;;;;;;;;;;11.48;51.15;98941.03;3471481;28;19925;-44
2021/05/05 04:45:17;;;;;;;;;;;;;;;11.57;50.94;98942.75;3481949;28;19925;-44
2021/05/05 04:46:58;;;;;;;;;;;;;;;11.63;50.69;98930.59;3481195;28;19947;-45
2021/05/05 04:48:39;;;;;;;;;;;;;;;11.76;51.36;98938.38;3483025;28;19928;-44
2021/05/05 04:50:21;;;;;;;;;;;;;;;11.84;50.39;98938.38;3481001;28;19994;-44
2021/05/05 04:52:03;;;;;;;;;;;;;;;11.94;50.38;98929.63;3484288;28;20282;-44
2021/05/05 04:53:45;;;;;;;;;;;;;;;12.05;50.30;98934.78;3478258;28;19928;-54
2021/05/05 04:55:27;;;;;;;;;;;;;;;12.16;50.20;98935.63;3481967;28;19931;-50
2021/05/05 04:57:08;;;;;;;;;;;;;;;12.28;49.39;98937.31;3482291;28;19925;-53
2021/05/05 04:58:49;;;;;;;;;;;;;;;12.35;49.60;98945.06;3480381;28;19924;-51
2021/05/05 05:00:30;;;;;;;;;;;;;;;12.42;48.58;98938.09;3470285;28;19928;-53
2021/05/05 05:02:11;;;;;;;;;;;;;;;12.49;48.87;98924.19;3474556;28;19925;-52
2021/05/05 05:03:52;;;;;;;;;;;;;;;12.56;48.78;98928.47;3484588;28;19925;-50
2021/05/05 05:05:34;;;;;;;;;;;;;;;12.64;48.92;98930.16;3480624;28;19978;-50
2021/05/05 05:07:15;;;;;;;;;;;;;;;12.71;48.82;98926.63;3482105;28;19967;-44
2021/05/05 05:08:59;;;;;;;;;;;;;;;12.82;48.84;98927.41;3481794;28;19994;-45
2021/05/05 05:10:40;;;;;;;;;;;;;;;12.91;48.08;98923.91;3480806;28;19941;-44
2021/05/05 05:12:22;;;;;;;;;;;;;;;12.95;48.11;98917.81;3484166;28;19924;-43
2021/05/05 05:14:03;;;;;;;;;;;;;;;13.03;47.86;98916.00;3479004;28;19990;-44
2021/05/05 05:15:44;;;;;;;;;;;;;;;13.08;47.73;98918.56;3483426;28;20293;-44
2021/05/05 05:17:25;;;;;;;;;;;;;;;13.13;47.76;98927.22;3481119;28;19925;-44
2021/05/05 05:19:07;;;;;;;;;;;;;;;13.21;47.66;98921.91;3480648;28;20306;-49
2021/05/05 05:20:48;;;;;;;;;;;;;;;13.32;48.08;98920.94;3481955;28;19931;-44
2021/05/05 05:22:29;;;;;;;;;;;;;;;13.42;47.39;98931.28;3479411;28;19928;-44
2021/05/05 05:24:11;;;;;;;;;;;;;;;13.41;47.54;98919.16;3484112;28;19924;-44
2021/05/05 05:25:52;;;;;;;;;;;;;;;13.51;47.84;98925.97;3480905;28;19925;-44
2021/05/05 05:27:33;;;;;;;;;;;;;;;13.61;47.35;98911.97;3483736;28;20193;-53
2021/05/05 05:29:14;;;;;;;;;;;;;;;13.69;47.18;98912.75;3480839;28;20341;-50
2021/05/05 05:30:56;;;;;;;;;;;;;;;13.70;47.04;98919.69;3481972;28;19928;-51
2021/05/05 05:32:37;;;;;;;;;;;;;;;13.73;47.18;98918.78;3481392;28;19978;-52
2021/05/05 05:34:18;;;;;;;;;;;;;;;13.80;47.50;98912.63;3479071;28;19931;-52
2021/05/05 05:35:59;;;;;;;;;;;;;;;13.86;46.88;98911.69;3483743;28;19924;-51
2021/05/05 05:37:41;;;;;;;;;;;;;;;13.94;47.35;98914.22;3480211;28;20362;-53
2021/05/05 05:39:22;;;;;;;;;;;;;;;14.00;47.18;98899.34;3483996;28;19925;-44
2021/05/05 05:41:05;;;;;;;;;;;;;;;14.07;47.21;98900.97;3479572;28;19931;-44
2021/05/05 05:42:47;;;;;;;;;;;;;;;14.15;47.38;98890.47;3481838;28;19928;-44
2021/05/05 05:44:28;;;;;;;;;;;;;;;14.25;46.61;98888.59;3482494;28;19978;-46
2021/05/05 05:46:09;;;;;;;;;;;;;;;14.35;46.73;98882.38;3479837;28;19979;-44
2021/05/05 05:47:50;;;;;;;;;;;;;;;14.46;45.89;98893.56;3469818;28;20328;-46
2021/05/05 05:49:32;;;;;;;;;;;;;;;14.46;45.65;98875.28;3473324;28;19932;-44
2021/05/05 05:51:13;;;;;;;;;;;;;;;14.48;45.78;98882.22;3470666;28;19973;-49
2021/05/05 05:52:54;;;;;;;;;;;;;;;14.50;46.28;98875.22;3479713;28;20381;-50
2021/05/05 05:54:36;;;;;;;;;;;;;;;14.57;46.34;98869.91;3481505;28;19929;-51
2021/05/05 05:56:18;;;;;;;;;;;;;;;14.67;46.22;98874.97;3482228;28;19924;-52
2021/05/05 05:57:59;;;;;;;;;;;;;;;14.72;46.00;98866.16;3480470;28;19924;-50
2021/05/05 05:59:40;;;;;;;;;;;;;;;14.80;46.13;98864.31;3483488;28;20372;-45
2021/05/05 06:01:21;;;;;;;;;;;;;;;14.90;46.88;98867.59;3480261;28;20029;-51
2021/05/05 06:03:05;;;;;;;;;;;;;;;14.99;46.64;98866.59;3483642;28;19928;-50
2021/05/05 06:04:46;;;;;;;;;;;;;;;15.11;46.67;98861.16;3480067;28;20314;-50
2021/05/05 06:06:27;;;;;;;;;;;;;;;15.22;47.13;98866.19;3480355;28;19925;-52
2021/05/05 06:08:08;;;;;;;;;;;;;;;15.31;46.98;98859.94;3482014;28;19924;-50
2021/05/05 06:09:50;;;;;;;;;;;;;;;15.30;47.36;98874.75;3479276;28;20002;-51
2021/05/05 06:11:31;;;;;;;;;;;;;;;15.35;47.97;98865.06;3497793;22;19978;-53
2021/05/05 06:13:12;;;;;;;;;;;;;;;15.36;47.48;98866.78;3506489;28;19924;-52
2021/05/05 06:14:54;;;;;;;;;;;;;;;15.46;47.57;98872.72;3511174;28;19928;-52
2021/05/05 06:16:36;;;;;;;;;;;;;;;15.55;47.85;98864.69;3508785;28;19971;-50
2021/05/05 06:18:17;;;;;;;;;;;;;;;15.69;47.40;98859.22;3508314;28;19923;-52
2021/05/05 06:19:59;;;;;;;;;;;;;;;15.77;47.47;98872.13;3499039;28;19969;-51
2021/05/05 06:21:40;;;;;;;;;;;;;;;15.82;48.03;98869.44;3500676;28;19977;-51
2021/05/05 06:23:21;;;;;;;;;;;;;;;15.87;47.92;98871.06;3510232;28;19963;-53
2021/05/05 06:25:03;;;;;;;;;;;;;;;15.95;47.30;98871.78;3508036;28;20023;-46
2021/05/05 06:26:44;;;;;;;;;;;;;;;15.90;47.66;98885.84;3511085;28;19969;-52
2021/05/05 06:28:26;;;;;;;;;;;;;;;15.91;47.84;98875.34;3507728;28;19923;-53
2021/05/05 06:30:07;;;;;;;;;;;;;;;15.88;48.25;98874.56;3509768;28;19923;-50
2021/05/05 06:31:49;;;;;;;;;;;;;;;15.90;48.33;98881.47;3508151;28;19976;-50
2021/05/05 06:33:31;;;;;;;;;;;;;;;15.87;48.17;98872.81;3507599;28;20281;-51
2021/05/05 06:35:12;;;;;;;;;;;;;;;15.97;49.06;98884.81;3509836;28;19950;-48
2021/05/05 06:36:53;;;;;;;;;;;;;;;16.01;48.59;98872.53;3507482;28;19971;-50
2021/05/05 06:38:35;;;;;;;;;;;;;;;16.03;48.73;98876.81;3510850;28;19931;-51
2021/05/05 06:40:19;;;;;;;;;;;;;;;16.12;48.56;98867.91;3506057;28;19924;-51
2021/05/05 06:42:00;;;;;;;;;;;;;;;16.24;48.94;98872.88;3507910;28;20393;-52
2021/05/05 06:43:42;;;;;;;;;;;;;;;16.36;49.13;98870.00;3509347;28;20010;-51
2021/05/05 06:45:23;;;;;;;;;;;;;;;16.53;48.69;98869.63;3507737;28;19924;-52
2021/05/05 06:47:04;;;;;;;;;;;;;;;16.69;48.20;98862.25;3509598;28;19932;-50
2021/05/05 06:48:46;;;;;;;;;;;;;;;16.69;47.92;98869.25;3505819;28;19924;-53
2021/05/05 06:50:28;;;;;;;;;;;;;;;16.73;48.14;98865.66;3511042;28;19978;-47
2021/05/05 06:52:09;;;;;;;;;;;;;;;16.66;48.51;98862.31;3506324;28;19924;-47
2021/05/05 06:53:51;;;;;;;;;;;;;;;16.62;48.67;98867.66;3508073;28;19923;-46
2021/05/05 06:55:33;;;;;;;;;;;;;;;16.68;48.80;98857.91;3508756;28;19974;-46
2021/05/05 06:57:13;;;;;;;;;;;;;;;16.79;48.73;98877.75;3507447;28;19959;-46
2021/05/05 06:58:55;;;;;;;;;;;;;;;16.89;49.03;98882.75;3510523;28;19923;-46
2021/05/05 07:00:36;;;;;;;;;;;;;;;16.88;48.89;98878.41;3507103;28;19978;-46
2021/05/05 07:02:17;;;;;;;;;;;;;;;16.83;49.53;98872.44;3510902;28;19984;-46
2021/05/05 07:03:59;;;;;;;;;;;;;;;16.76;49.67;98867.34;3505758;28;20002;-46
2021/05/05 07:05:41;;;;;;;;;;;;;;;16.79;50.12;98865.53;3509808;28;19924;-46
2021/05/05 07:07:22;;;;;;;;;;;;;;;16.86;49.53;98859.22;3508496;28;19931;-45
2021/05/05 07:09:04;;;;;;;;;;;;;;;16.96;49.70;98865.13;3507470;28;19935;-45
2021/05/05 07:10:46;;;;;;;;;;;;;;;17.09;49.06;98876.13;3510234;28;19931;-46
2021/05/05 07:12:27;;;;;;;;;;;;;;;17.08;49.48;98867.41;3507151;28;19927;-46
2021/05/05 07:14:09;;;;;;;;;;;;;;;17.12;49.30;98873.44;3509321;28;19971;-46
2021/05/05 07:15:50;;;;;;;;;;;;;;;17.14;49.38;98868.16;3506912;28;19966;-46
2021/05/05 07:17:31;;;;;;;;;;;;;;;17.17;48.59;98858.47;3509969;28;20022;-46
2021/05/05 07:19:12;;;;;;;;;;;;;;;17.21;48.97;98859.25;3507997;28;19924;-46
2021/05/05 07:20:55;;;;;;;;;;;;;;;17.21;49.25;98856.63;3507459;28;19932;-46
2021/05/05 07:22:36;;;;;;;;;;;;;;;17.27;49.26;98843.34;3511615;28;19923;-46
2021/05/05 07:24:18;;;;;;;;;;;;;;;17.39;49.31;98836.91;3507879;28;20598;-45
2021/05/05 07:25:59;;;;;;;;;;;;;;;17.54;49.38;98835.63;3513198;28;19924;-45
2021/05/05 07:27:41;;;;;;;;;;;;;;;17.75;48.25;98850.75;3508065;28;19993;-47
2021/05/05 07:29:22;;;;;;;;;;;;;;;17.63;47.96;98844.09;3512030;28;20306;-46
2021/05/05 07:31:03;;;;;;;;;;;;;;;17.65;47.85;98844.91;3509185;28;19924;-46
2021/05/05 07:32:45;;;;;;;;;;;;;;;17.75;48.84;98840.25;3509543;28;20389;-45
2021/05/05 07:34:26;;;;;;;;;;;;;;;17.64;48.48;98853.69;3512159;28;19986;-46
2021/05/05 07:36:13;;;;;;;;;;;;;;;17.70;48.90;98846.56;3509309;28;19971;-46
2021/05/05 07:47:49;;;;;;;;;;;;;;;18.21;48.33;98838.91;3507947;28;19950;-46
2021/05/05 07:49:38;;;;;;;;;;;;;;;18.34;47.17;98843.78;3498702;28;19924;-46
2021/05/05 07:51:19;;;;;;;;;;;;;;;18.43;47.92;98851.38;3505158;28;19928;-46
2021/05/05 07:53:00;;;;;;;;;;;;;;;18.44;47.62;98839.97;3512310;28;19924;-45
2021/05/05 07:54:41;;;;;;;;;;;;;;;18.49;46.97;98840.69;3509671;28;19968;-46
2021/05/05 07:56:22;;;;;;;;;;;;;;;18.30;47.19;98856.16;3509149;28;19930;-46
2021/05/05 07:58:03;;;;;;;;;;;;;;;18.21;47.21;98856.44;3511605;28;19923;-46
2021/05/05 07:59:44;;;;;;;;;;;;;;;18.13;48.22;98854.03;3508063;28;20053;-45
2021/05/05 08:01:25;;;;;;;;;;;;;;;18.00;48.20;98842.19;3512708;28;20009;-46
2021/05/05 08:03:06;;;;;;;;;;;;;;;18.05;48.21;98835.91;3507773;28;20014;-46
2021/05/05 08:04:49;;;;;;;;;;;;;;;17.93;48.51;98840.66;3512467;28;19924;-47
2021/05/05 08:06:31;;;;;;;;;;;;;;;17.94;48.33;98848.50;3508555;28;20400;-48
2021/05/05 08:08:12;;;;;;;;;;;;;;;17.88;48.99;98826.81;3510770;28;19963;-52
2021/05/05 08:09:53;;;;;;;;;;;;;;;18.03;49.00;98821.97;3511399;28;19976;-54
2021/05/05 08:11:34;;;;;;;;;;;;;;;18.09;48.65;98828.78;3507557;28;19928;-52
2021/05/05 08:13:16;;;;;;;;;;;;;;;18.09;48.02;98833.19;3511085;28;20015;-51
2021/05/05 08:14:57;;;;;;;;;;;;;;;18.18;47.83;98831.13;3508902;28;20014;-51
2021/05/05 08:16:39;;;;;;;;;;;;;;;18.24;47.87;98820.44;3512285;28;19924;-50
2021/05/05 08:18:20;;;;;;;;;;;;;;;18.36;47.78;98823.59;3507945;28;19931;-50
2021/05/05 08:20:01;;;;;;;;;;;;;;;18.10;46.38;98829.66;3510667;28;19928;-50
2021/05/05 08:21:42;;;;;;;;;;;;;;;18.17;47.24;98823.28;3510888;28;19924;-50
2021/05/05 08:23:24;;;;;;;;;;;;;;;18.18;46.64;98830.28;3508144;28;19924;-46
2021/05/05 08:25:06;;;;;;;;;;;;;;;18.02;45.65;98828.13;3504709;28;19959;-49
2021/05/05 08:26:47;;;;;;;;;;;;;;;17.93;45.24;98825.78;3508987;28;19924;-51
2021/05/05 08:28:29;;;;;;;;;;;;;;;17.79;47.36;98818.28;3512261;28;19924;-50
2021/05/05 08:30:11;;;;;;;;;;;;;;;17.84;47.48;98818.19;3507460;28;19970;-53
2021/05/05 08:31:52;;;;;;;;;;;;;;;18.10;46.80;98814.78;3510737;28;19934;-48
2021/05/05 08:33:33;;;;;;;;;;;;;;;18.33;45.70;98811.44;3508737;28;19931;-45
2021/05/05 08:35:15;;;;;;;;;;;;;;;18.29;46.48;98812.41;3507784;28;19928;-46
2021/05/05 08:36:57;;;;;;;;;;;;;;;18.32;45.73;98820.19;3511803;28;20316;-46
2021/05/05 08:38:38;;;;;;;;;;;;;;;18.38;46.20;98827.91;3508564;28;19935;-46
2021/05/05 08:40:20;;;;;;;;;;;;;;;18.26;46.43;98823.03;3512361;28;19931;-46
2021/05/05 08:42:01;;;;;;;;;;;;;;;18.18;47.15;98822.41;3507346;28;19924;-46
2021/05/05 08:43:44;;;;;;;;;;;;;;;18.17;47.12;98810.16;3508621;28;19936;-46
2021/05/05 08:45:26;;;;;;;;;;;;;;;18.19;46.97;98811.00;3510583;28;19924;-46
2021/05/05 08:47:07;;;;;;;;;;;;;;;18.36;46.98;98813.94;3508981;28;19923;-47
2021/05/05 08:48:49;;;;;;;;;;;;;;;18.67;46.49;98810.34;3512045;28;19924;-47
2021/05/05 08:50:31;;;;;;;;;;;;;;;18.93;46.31;98808.59;3508448;28;19931;-46
2021/05/05 08:52:13;;;;;;;;;;;;;;;19.00;44.94;98811.00;3512097;28;19954;-45
2021/05/05 08:53:54;;;;;;;;;;;;;;;19.02;45.37;98805.69;3507612;28;20352;-47
2021/05/05 08:55:36;;;;;;;;;;;;;;;19.03;45.33;98807.38;3508655;28;19975;-44
2021/05/05 08:57:18;;;;;;;;;;;;;;;19.00;45.41;98808.38;3510712;28;19963;-45
2021/05/05 08:59:01;;;;;;;;;;;;;;;19.05;45.68;98813.44;3507492;28;20347;-46
2021/05/05 09:00:42;;;;;;;;;;;;;;;19.10;44.64;98805.41;3511702;28;19924;-46
2021/05/05 09:02:23;;;;;;;;;;;;;;;19.12;45.34;98806.22;3508416;28;20313;-46
2021/05/05 09:04:05;;;;;;;;;;;;;;;19.14;44.20;98801.75;3511979;28;19928;-46